This is the latest recevied weather packets stored in our database for station/object N8XHB. If no packets are shown the sender has not sent any weather packets the latest 10 day(s).
| Time | Temp. | Humidity | Pressure | Rain* | Wind** | Luminosity | Snow |
|---|---|---|---|---|---|---|---|
| 1777689066 | 3.89° C | 54% | 1018 hPa | 0 mm | - | 0 W/m² | - |
| 1777688763 | 3.89° C | 52% | 1018 hPa | 0 mm | - | 0 W/m² | - |
| 1777687854 | 3.89° C | 49% | 1017.9 hPa | 0 mm | - | 0 W/m² | - |
| 1777687552 | 3.89° C | 48% | 1017.8 hPa | 0 mm | - | 0 W/m² | - |
| 1777673612 | 6.67° C | 49% | 1016.3 hPa | 0 mm | - | 44 W/m² | - |
| 1777673310 | 6.67° C | 48% | 1016.3 hPa | 0 mm | - | 45 W/m² | - |
| 1777672400 | 6.67° C | 51% | 1016.3 hPa | 0 mm | - | 46 W/m² | - |
| 1777671487 | 6.67° C | 51% | 1016 hPa | 0 mm | - | 115 W/m² | - |
| 1777670879 | 6.67° C | 54% | 1015.9 hPa | 0 mm | - | 78 W/m² | - |
| 1777670576 | 6.67° C | 53% | 1016 hPa | 0 mm | - | 71 W/m² | - |
| 1777670273 | 6.67° C | 51% | 1016 hPa | 0 mm | - | 65 W/m² | - |
| 1777669970 | 6.67° C | 52% | 1016 hPa | 0 mm | - | 69 W/m² | - |
| 1777669667 | 6.67° C | 52% | 1016.1 hPa | 0 mm | - | 65 W/m² | - |
| 1777669364 | 6.67° C | 52% | 1016.1 hPa | 0 mm | - | 76 W/m² | - |
| 1777669060 | 6.67° C | 52% | 1016.1 hPa | 0 mm | - | 92 W/m² | - |
| 1777668151 | 6.67° C | 54% | 1016.1 hPa | 0 mm | - | 69 W/m² | - |
| 1777667847 | 6.67° C | 53% | 1016.2 hPa | 0 mm | - | 59 W/m² | - |
| 1777667545 | 6.67° C | 52% | 1016.1 hPa | 0 mm | - | 56 W/m² | - |
| 1777667242 | 6.67° C | 52% | 1016.1 hPa | 0 mm | - | 54 W/m² | - |
| 1777666939 | 6.67° C | 51% | 1016 hPa | 0 mm | - | 62 W/m² | - |
| 1777666635 | 6.67° C | 51% | 1016.1 hPa | 0 mm | - | 69 W/m² | - |
| 1777666029 | 6.67° C | 53% | 1016 hPa | 0 mm | - | 92 W/m² | - |
| 1777665726 | 6.67° C | 53% | 1016.1 hPa | 0 mm | - | 104 W/m² | - |
| 1777665423 | 6.67° C | 52% | 1016.1 hPa | 0 mm | - | 80 W/m² | - |
| 1777665119 | 6.67° C | 53% | 1015.9 hPa | 0 mm | - | 71 W/m² | - |
* Rain latest hour (hover to see other rain measurements)
** Current wind speed in m/s (hover to see current wind gust speed)